Aérodrome :
LOGIN :

S'inscrire | Disclaimer

   EN    FR    IT 

 










Légende :    VFR   VFR Marginal   IFR   IFR Intensif   IFR Très Intensif
Visi : 
Plafond : 
>= 8 km
>= 3000ft
5 à 8 km
1000 à 3000 ft
1500m à 5 km
500 à 1000 ft
800 à 1500m
200 à 500 ft
< 800m
< 200 ft
Symboles :   Orages  Brouillard  Fortes neiges  Fortes précipitations  Vent > 20 kt
SIGMETs :   Divers  Orages  Givrage  Turbulence  Onde Orograph.  Cendres Volcan.






- Altitude de l'aérodrome : 233 ft
- Code IATA : REU


LERS - Reus Tarragona

DERNIER METAR :
  • 171630Z 31014KT 270V350 9999 FEW035 16/04 Q1026

METARs EXPIRÉS :
  • 171600Z 26012KT 220V300 9999 FEW035 17/04 Q1026
  • 171530Z 27012KT 240V300 9999 FEW035 16/05 Q1025
  • 171500Z 26013KT 9999 FEW035 16/05 Q1025
  • 171430Z 27015KT 240V310 9999 FEW035 17/05 Q1025
  • 171400Z 27016KT 230V300 9999 FEW035 17/06 Q1025

TAF TAF LERS
Valide du 17 à 15h jusqu'au 18 à 15h UTC


171400Z 1715/1815 VRB04KT CAVOK TX14/1813Z TN02/1806Z
TEMPO 1715/1719 30015G28KT



MET'MAP, la Météo Aéronautique d'un coup d'oeil ! - Copyright ORBIFLY Décembre 2007 - Disclaimer

ORBIFLY MET'MAP TEAM :

Programmation & Développement : Alexandra Zaïnal
Sur une idée originale de : Baudouin d'Aumeries
Assistance à la programmation : Marc-Olivier Méhu
Soutien technique & logistique : Manuel Goepfert

Contact : metmap@orbifly.com




SOURCES & CREDITS :

   NOAA